sensor_id;sensor_type;location;lat;lon;timestamp;temperature;humidity
23445;DHT22;11895;48.738;9.320;2023-05-29T00:02:03;15.90;95.00
23445;DHT22;11895;48.738;9.320;2023-05-29T00:04:31;14.90;95.50
23445;DHT22;11895;48.738;9.320;2023-05-29T00:06:59;14.90;95.50
23445;DHT22;11895;48.738;9.320;2023-05-29T00:09:26;14.70;95.50
23445;DHT22;11895;48.738;9.320;2023-05-29T00:11:55;14.70;95.40
23445;DHT22;11895;48.738;9.320;2023-05-29T00:14:22;14.70;95.60
23445;DHT22;11895;48.738;9.320;2023-05-29T00:16:51;14.70;95.70
23445;DHT22;11895;48.738;9.320;2023-05-29T00:19:19;14.90;96.50
23445;DHT22;11895;48.738;9.320;2023-05-29T00:21:46;15.00;95.20
23445;DHT22;11895;48.738;9.320;2023-05-29T00:24:15;14.80;96.20
23445;DHT22;11895;48.738;9.320;2023-05-29T00:26:44;14.80;96.70
23445;DHT22;11895;48.738;9.320;2023-05-29T00:29:11;14.70;96.00
23445;DHT22;11895;48.738;9.320;2023-05-29T00:31:38;14.60;95.70
23445;DHT22;11895;48.738;9.320;2023-05-29T00:34:06;14.80;96.80
23445;DHT22;11895;48.738;9.320;2023-05-29T00:36:49;14.90;97.00
23445;DHT22;11895;48.738;9.320;2023-05-29T00:40:31;14.80;97.20
23445;DHT22;11895;48.738;9.320;2023-05-29T00:43:13;14.50;96.30
23445;DHT22;11895;48.738;9.320;2023-05-29T00:51:19;14.10;97.00
23445;DHT22;11895;48.738;9.320;2023-05-29T00:53:47;14.10;97.90
23445;DHT22;11895;48.738;9.320;2023-05-29T00:56:20;13.80;96.00
23445;DHT22;11895;48.738;9.320;2023-05-29T00:58:49;15.10;94.90
23445;DHT22;11895;48.738;9.320;2023-05-29T01:01:19;14.10;96.40
23445;DHT22;11895;48.738;9.320;2023-05-29T01:03:48;14.20;95.10
23445;DHT22;11895;48.738;9.320;2023-05-29T01:06:16;13.90;96.80
23445;DHT22;11895;48.738;9.320;2023-05-29T01:08:45;15.20;98.50
23445;DHT22;11895;48.738;9.320;2023-05-29T01:11:31;15.30;98.90
23445;DHT22;11895;48.738;9.320;2023-05-29T01:14:24;13.90;96.90
23445;DHT22;11895;48.738;9.320;2023-05-29T01:17:34;13.90;95.50
23445;DHT22;11895;48.738;9.320;2023-05-29T01:29:28;13.60;98.40
23445;DHT22;11895;48.738;9.320;2023-05-29T01:31:59;13.50;98.30
23445;DHT22;11895;48.738;9.320;2023-05-29T01:34:34;13.80;96.50
23445;DHT22;11895;48.738;9.320;2023-05-29T01:37:04;15.30;99.90
23445;DHT22;11895;48.738;9.320;2023-05-29T01:39:35;13.80;98.60
23445;DHT22;11895;48.738;9.320;2023-05-29T01:42:03;13.70;99.90
23445;DHT22;11895;48.738;9.320;2023-05-29T01:44:34;13.50;98.50
23445;DHT22;11895;48.738;9.320;2023-05-29T01:47:03;13.40;96.40
23445;DHT22;11895;48.738;9.320;2023-05-29T01:49:37;13.40;99.40
23445;DHT22;11895;48.738;9.320;2023-05-29T01:52:08;13.30;97.20
23445;DHT22;11895;48.738;9.320;2023-05-29T01:54:37;13.60;96.60
23445;DHT22;11895;48.738;9.320;2023-05-29T01:57:06;14.50;98.40
23445;DHT22;11895;48.738;9.320;2023-05-29T01:59:36;15.00;99.00
23445;DHT22;11895;48.738;9.320;2023-05-29T02:02:08;13.40;99.60
23445;DHT22;11895;48.738;9.320;2023-05-29T02:04:36;13.40;99.10
23445;DHT22;11895;48.738;9.320;2023-05-29T02:07:10;14.80;99.90
23445;DHT22;11895;48.738;9.320;2023-05-29T02:09:38;13.20;97.80
23445;DHT22;11895;48.738;9.320;2023-05-29T02:12:06;13.20;96.30
23445;DHT22;11895;48.738;9.320;2023-05-29T02:14:37;13.00;96.40
23445;DHT22;11895;48.738;9.320;2023-05-29T02:17:17;14.40;99.90
23445;DHT22;11895;48.738;9.320;2023-05-29T02:19:50;12.20;96.40
23445;DHT22;11895;48.738;9.320;2023-05-29T02:22:18;12.10;94.50
23445;DHT22;11895;48.738;9.320;2023-05-29T02:24:45;13.80;96.80
23445;DHT22;11895;48.738;9.320;2023-05-29T02:27:12;12.90;95.80
23445;DHT22;11895;48.738;9.320;2023-05-29T02:29:41;12.90;99.90
23445;DHT22;11895;48.738;9.320;2023-05-29T02:32:08;13.60;99.00
23445;DHT22;11895;48.738;9.320;2023-05-29T02:34:37;12.90;96.60
23445;DHT22;11895;48.738;9.320;2023-05-29T02:37:07;13.90;98.00
23445;DHT22;11895;48.738;9.320;2023-05-29T02:39:35;13.60;98.50
23445;DHT22;11895;48.738;9.320;2023-05-29T02:42:08;12.60;99.70
23445;DHT22;11895;48.738;9.320;2023-05-29T02:44:39;12.60;99.30
23445;DHT22;11895;48.738;9.320;2023-05-29T02:47:10;14.70;99.90
23445;DHT22;11895;48.738;9.320;2023-05-29T02:49:46;13.80;99.90
23445;DHT22;11895;48.738;9.320;2023-05-29T02:52:17;14.30;99.90
23445;DHT22;11895;48.738;9.320;2023-05-29T02:54:47;13.70;99.90
23445;DHT22;11895;48.738;9.320;2023-05-29T02:57:15;13.70;99.90
23445;DHT22;11895;48.738;9.320;2023-05-29T02:59:42;13.00;99.90
23445;DHT22;11895;48.738;9.320;2023-05-29T03:02:11;12.30;97.90
23445;DHT22;11895;48.738;9.320;2023-05-29T03:04:38;13.90;98.30
23445;DHT22;11895;48.738;9.320;2023-05-29T03:07:12;13.00;97.60
23445;DHT22;11895;48.738;9.320;2023-05-29T03:09:40;12.20;97.00
23445;DHT22;11895;48.738;9.320;2023-05-29T03:12:09;13.30;99.70
23445;DHT22;11895;48.738;9.320;2023-05-29T03:14:36;13.60;96.30
23445;DHT22;11895;48.738;9.320;2023-05-29T03:17:08;12.20;99.20
23445;DHT22;11895;48.738;9.320;2023-05-29T03:19:36;13.10;98.20
23445;DHT22;11895;48.738;9.320;2023-05-29T03:22:04;12.30;99.10
23445;DHT22;11895;48.738;9.320;2023-05-29T03:24:35;14.50;99.90
23445;DHT22;11895;48.738;9.320;2023-05-29T03:27:03;13.50;99.90
23445;DHT22;11895;48.738;9.320;2023-05-29T03:29:35;12.40;99.90
23445;DHT22;11895;48.738;9.320;2023-05-29T03:32:06;13.70;99.90
23445;DHT22;11895;48.738;9.320;2023-05-29T03:34:41;12.20;99.90
23445;DHT22;11895;48.738;9.320;2023-05-29T03:37:13;12.20;98.80
23445;DHT22;11895;48.738;9.320;2023-05-29T03:39:41;14.30;99.90
23445;DHT22;11895;48.738;9.320;2023-05-29T03:42:13;13.40;99.40
23445;DHT22;11895;48.738;9.320;2023-05-29T03:44:42;13.80;99.90
23445;DHT22;11895;48.738;9.320;2023-05-29T03:47:12;12.20;99.90
23445;DHT22;11895;48.738;9.320;2023-05-29T03:49:40;13.00;99.90
23445;DHT22;11895;48.738;9.320;2023-05-29T03:52:09;11.90;99.90
23445;DHT22;11895;48.738;9.320;2023-05-29T03:54:42;13.00;99.90
23445;DHT22;11895;48.738;9.320;2023-05-29T03:57:14;12.80;99.90
23445;DHT22;11895;48.738;9.320;2023-05-29T03:59:45;12.50;99.90
23445;DHT22;11895;48.738;9.320;2023-05-29T04:02:17;12.00;99.90
23445;DHT22;11895;48.738;9.320;2023-05-29T04:04:47;12.00;99.90
23445;DHT22;11895;48.738;9.320;2023-05-29T04:07:22;13.70;99.90
23445;DHT22;11895;48.738;9.320;2023-05-29T04:09:53;12.20;99.90
23445;DHT22;11895;48.738;9.320;2023-05-29T04:12:23;12.00;99.90
23445;DHT22;11895;48.738;9.320;2023-05-29T04:14:50;13.20;99.90
23445;DHT22;11895;48.738;9.320;2023-05-29T04:17:17;13.40;99.90
23445;DHT22;11895;48.738;9.320;2023-05-29T04:19:48;14.10;99.90
23445;DHT22;11895;48.738;9.320;2023-05-29T04:22:16;13.10;99.90
23445;DHT22;11895;48.738;9.320;2023-05-29T04:24:47;12.40;99.90
23445;DHT22;11895;48.738;9.320;2023-05-29T04:27:32;12.00;99.90
23445;DHT22;11895;48.738;9.320;2023-05-29T04:30:08;13.20;99.90
23445;DHT22;11895;48.738;9.320;2023-05-29T04:32:46;11.90;99.90
23445;DHT22;11895;48.738;9.320;2023-05-29T04:35:22;13.10;99.90
23445;DHT22;11895;48.738;9.320;2023-05-29T04:38:10;12.40;99.90
23445;DHT22;11895;48.738;9.320;2023-05-29T04:40:42;12.70;99.90
23445;DHT22;11895;48.738;9.320;2023-05-29T04:43:22;12.20;96.10
23445;DHT22;11895;48.738;9.320;2023-05-29T04:46:02;12.10;99.90
23445;DHT22;11895;48.738;9.320;2023-05-29T04:48:38;13.70;99.90
23445;DHT22;11895;48.738;9.320;2023-05-29T04:51:11;13.80;99.90
23445;DHT22;11895;48.738;9.320;2023-05-29T04:54:00;13.20;99.90
23445;DHT22;11895;48.738;9.320;2023-05-29T04:56:32;12.40;99.90
23445;DHT22;11895;48.738;9.320;2023-05-29T04:59:02;13.80;99.40
23445;DHT22;11895;48.738;9.320;2023-05-29T05:01:30;14.40;99.90
23445;DHT22;11895;48.738;9.320;2023-05-29T05:04:01;13.70;99.90
23445;DHT22;11895;48.738;9.320;2023-05-29T05:06:29;14.60;99.90
23445;DHT22;11895;48.738;9.320;2023-05-29T05:08:57;12.80;99.90
23445;DHT22;11895;48.738;9.320;2023-05-29T05:11:25;15.10;99.90
23445;DHT22;11895;48.738;9.320;2023-05-29T05:13:55;14.60;99.90
23445;DHT22;11895;48.738;9.320;2023-05-29T05:16:30;14.10;99.90
23445;DHT22;11895;48.738;9.320;2023-05-29T05:19:03;15.00;99.90
23445;DHT22;11895;48.738;9.320;2023-05-29T05:21:42;13.70;99.90
23445;DHT22;11895;48.738;9.320;2023-05-29T05:24:17;14.00;99.90
23445;DHT22;11895;48.738;9.320;2023-05-29T05:26:44;14.20;99.90
23445;DHT22;11895;48.738;9.320;2023-05-29T05:29:18;13.60;99.90
23445;DHT22;11895;48.738;9.320;2023-05-29T05:31:53;13.40;99.90
23445;DHT22;11895;48.738;9.320;2023-05-29T05:34:24;13.50;99.90
23445;DHT22;11895;48.738;9.320;2023-05-29T05:36:54;13.90;98.90
23445;DHT22;11895;48.738;9.320;2023-05-29T05:39:25;13.70;99.70
23445;DHT22;11895;48.738;9.320;2023-05-29T05:41:53;12.70;98.20
23445;DHT22;11895;48.738;9.320;2023-05-29T05:44:39;15.30;99.90
23445;DHT22;11895;48.738;9.320;2023-05-29T05:47:11;15.10;99.80
23445;DHT22;11895;48.738;9.320;2023-05-29T05:49:43;14.20;99.90
23445;DHT22;11895;48.738;9.320;2023-05-29T05:52:28;13.30;98.50
23445;DHT22;11895;48.738;9.320;2023-05-29T05:55:09;15.50;96.20
23445;DHT22;11895;48.738;9.320;2023-05-29T05:57:55;15.90;96.80
23445;DHT22;11895;48.738;9.320;2023-05-29T06:00:39;14.60;99.70
23445;DHT22;11895;48.738;9.320;2023-05-29T06:03:43;14.90;98.20
23445;DHT22;11895;48.738;9.320;2023-05-29T06:06:13;14.80;99.90
23445;DHT22;11895;48.738;9.320;2023-05-29T06:08:47;15.50;96.90
23445;DHT22;11895;48.738;9.320;2023-05-29T06:11:26;17.30;99.90
23445;DHT22;11895;48.738;9.320;2023-05-29T06:13:58;14.10;97.70
23445;DHT22;11895;48.738;9.320;2023-05-29T06:16:30;15.90;98.10
23445;DHT22;11895;48.738;9.320;2023-05-29T06:19:00;17.40;98.20
23445;DHT22;11895;48.738;9.320;2023-05-29T06:21:32;16.50;95.30
23445;DHT22;11895;48.738;9.320;2023-05-29T06:24:12;16.60;98.40
23445;DHT22;11895;48.738;9.320;2023-05-29T06:26:40;17.80;97.30
23445;DHT22;11895;48.738;9.320;2023-05-29T06:29:13;16.60;96.80
23445;DHT22;11895;48.738;9.320;2023-05-29T06:31:47;16.60;97.70
23445;DHT22;11895;48.738;9.320;2023-05-29T06:34:15;18.30;97.40
23445;DHT22;11895;48.738;9.320;2023-05-29T06:36:53;17.90;97.50
23445;DHT22;11895;48.738;9.320;2023-05-29T06:39:26;17.10;94.90
23445;DHT22;11895;48.738;9.320;2023-05-29T06:41:54;17.20;95.50
23445;DHT22;11895;48.738;9.320;2023-05-29T06:44:25;17.50;93.90
23445;DHT22;11895;48.738;9.320;2023-05-29T06:46:59;18.00;96.80
23445;DHT22;11895;48.738;9.320;2023-05-29T06:49:43;17.80;96.20
23445;DHT22;11895;48.738;9.320;2023-05-29T06:52:18;16.00;94.60
23445;DHT22;11895;48.738;9.320;2023-05-29T06:55:23;18.30;94.90
23445;DHT22;11895;48.738;9.320;2023-05-29T06:58:08;18.00;95.50
23445;DHT22;11895;48.738;9.320;2023-05-29T07:01:17;18.40;95.10
23445;DHT22;11895;48.738;9.320;2023-05-29T07:04:29;17.70;94.60
23445;DHT22;11895;48.738;9.320;2023-05-29T07:07:11;18.70;94.90
23445;DHT22;11895;48.738;9.320;2023-05-29T07:09:51;19.30;95.60
23445;DHT22;11895;48.738;9.320;2023-05-29T07:12:24;19.00;95.40
23445;DHT22;11895;48.738;9.320;2023-05-29T07:15:15;19.10;95.00
23445;DHT22;11895;48.738;9.320;2023-05-29T07:18:04;19.40;94.50
23445;DHT22;11895;48.738;9.320;2023-05-29T07:20:56;20.20;94.80
23445;DHT22;11895;48.738;9.320;2023-05-29T07:23:31;21.10;93.20
23445;DHT22;11895;48.738;9.320;2023-05-29T07:26:05;19.80;92.70
23445;DHT22;11895;48.738;9.320;2023-05-29T07:28:49;20.60;91.30
23445;DHT22;11895;48.738;9.320;2023-05-29T07:31:34;20.30;91.10
23445;DHT22;11895;48.738;9.320;2023-05-29T07:34:16;20.50;90.70
23445;DHT22;11895;48.738;9.320;2023-05-29T07:37:06;20.70;90.20
23445;DHT22;11895;48.738;9.320;2023-05-29T07:39:45;20.80;89.40
23445;DHT22;11895;48.738;9.320;2023-05-29T07:42:35;21.30;90.60
23445;DHT22;11895;48.738;9.320;2023-05-29T07:45:03;21.10;89.30
23445;DHT22;11895;48.738;9.320;2023-05-29T07:47:48;21.30;87.90
23445;DHT22;11895;48.738;9.320;2023-05-29T07:50:24;21.30;88.60
23445;DHT22;11895;48.738;9.320;2023-05-29T07:52:59;21.90;89.10
23445;DHT22;11895;48.738;9.320;2023-05-29T07:55:33;21.90;88.60
23445;DHT22;11895;48.738;9.320;2023-05-29T07:58:05;22.00;86.00
23445;DHT22;11895;48.738;9.320;2023-05-29T08:00:37;22.20;86.60
23445;DHT22;11895;48.738;9.320;2023-05-29T08:03:13;22.30;85.60
23445;DHT22;11895;48.738;9.320;2023-05-29T08:06:03;22.30;85.50
23445;DHT22;11895;48.738;9.320;2023-05-29T08:08:33;22.30;83.40
23445;DHT22;11895;48.738;9.320;2023-05-29T08:11:06;22.40;83.30
23445;DHT22;11895;48.738;9.320;2023-05-29T08:13:40;22.60;86.20
23445;DHT22;11895;48.738;9.320;2023-05-29T08:16:08;22.90;84.40
23445;DHT22;11895;48.738;9.320;2023-05-29T08:18:36;22.70;84.70
23445;DHT22;11895;48.738;9.320;2023-05-29T08:21:07;22.90;85.30
23445;DHT22;11895;48.738;9.320;2023-05-29T08:26:32;23.80;82.60
23445;DHT22;11895;48.738;9.320;2023-05-29T08:29:00;23.30;82.70
23445;DHT22;11895;48.738;9.320;2023-05-29T08:31:29;23.30;81.50
23445;DHT22;11895;48.738;9.320;2023-05-29T08:33:57;23.50;80.10
23445;DHT22;11895;48.738;9.320;2023-05-29T08:36:25;23.40;83.00
23445;DHT22;11895;48.738;9.320;2023-05-29T08:38:54;24.80;81.30
23445;DHT22;11895;48.738;9.320;2023-05-29T08:44:22;23.80;79.90
23445;DHT22;11895;48.738;9.320;2023-05-29T08:47:02;23.90;79.50
23445;DHT22;11895;48.738;9.320;2023-05-29T08:49:40;23.90;79.20
23445;DHT22;11895;48.738;9.320;2023-05-29T08:52:16;24.00;78.80
23445;DHT22;11895;48.738;9.320;2023-05-29T08:54:46;24.10;79.00
23445;DHT22;11895;48.738;9.320;2023-05-29T08:57:15;24.30;79.10
23445;DHT22;11895;48.738;9.320;2023-05-29T08:59:45;24.10;78.60
23445;DHT22;11895;48.738;9.320;2023-05-29T09:02:13;24.40;78.70
23445;DHT22;11895;48.738;9.320;2023-05-29T09:04:48;24.50;78.40
23445;DHT22;11895;48.738;9.320;2023-05-29T09:07:24;24.80;78.80
23445;DHT22;11895;48.738;9.320;2023-05-29T09:09:56;24.70;77.90
23445;DHT22;11895;48.738;9.320;2023-05-29T09:12:30;24.80;78.00
23445;DHT22;11895;48.738;9.320;2023-05-29T09:15:01;26.30;79.20
23445;DHT22;11895;48.738;9.320;2023-05-29T09:17:31;24.90;78.00
23445;DHT22;11895;48.738;9.320;2023-05-29T09:19:59;25.00;77.60
23445;DHT22;11895;48.738;9.320;2023-05-29T09:22:27;25.10;77.60
23445;DHT22;11895;48.738;9.320;2023-05-29T09:24:59;25.10;77.40
23445;DHT22;11895;48.738;9.320;2023-05-29T09:27:26;25.20;76.80
23445;DHT22;11895;48.738;9.320;2023-05-29T09:30:30;25.30;76.50
23445;DHT22;11895;48.738;9.320;2023-05-29T09:33:22;25.30;76.70
23445;DHT22;11895;48.738;9.320;2023-05-29T09:35:54;25.50;76.30
23445;DHT22;11895;48.738;9.320;2023-05-29T09:38:30;25.50;76.60
23445;DHT22;11895;48.738;9.320;2023-05-29T09:41:04;25.70;77.00
23445;DHT22;11895;48.738;9.320;2023-05-29T09:43:35;25.70;74.60
23445;DHT22;11895;48.738;9.320;2023-05-29T09:46:15;26.00;73.20
23445;DHT22;11895;48.738;9.320;2023-05-29T09:48:51;26.00;70.50
23445;DHT22;11895;48.738;9.320;2023-05-29T09:51:23;26.10;72.60
23445;DHT22;11895;48.738;9.320;2023-05-29T09:53:58;26.20;72.30
23445;DHT22;11895;48.738;9.320;2023-05-29T09:56:31;26.10;73.00
23445;DHT22;11895;48.738;9.320;2023-05-29T09:59:01;26.10;73.40
23445;DHT22;11895;48.738;9.320;2023-05-29T10:01:29;26.40;71.10
23445;DHT22;11895;48.738;9.320;2023-05-29T10:04:03;26.40;72.60
23445;DHT22;11895;48.738;9.320;2023-05-29T10:06:32;26.50;71.20
23445;DHT22;11895;48.738;9.320;2023-05-29T10:09:15;26.60;68.30
23445;DHT22;11895;48.738;9.320;2023-05-29T10:11:53;26.80;65.40
23445;DHT22;11895;48.738;9.320;2023-05-29T10:14:31;28.80;65.40
23445;DHT22;11895;48.738;9.320;2023-05-29T10:17:02;27.10;64.40
23445;DHT22;11895;48.738;9.320;2023-05-29T10:19:52;27.70;65.10
23445;DHT22;11895;48.738;9.320;2023-05-29T10:22:27;26.70;65.30
23445;DHT22;11895;48.738;9.320;2023-05-29T10:25:13;27.30;64.10
23445;DHT22;11895;48.738;9.320;2023-05-29T10:28:05;27.30;63.70
23445;DHT22;11895;48.738;9.320;2023-05-29T10:31:08;27.40;64.50
23445;DHT22;11895;48.738;9.320;2023-05-29T10:40:38;28.00;62.80
23445;DHT22;11895;48.738;9.320;2023-05-29T10:46:06;28.30;62.00
23445;DHT22;11895;48.738;9.320;2023-05-29T10:48:38;28.40;62.90
23445;DHT22;11895;48.738;9.320;2023-05-29T10:51:28;28.60;61.60
23445;DHT22;11895;48.738;9.320;2023-05-29T10:53:59;28.60;60.40
23445;DHT22;11895;48.738;9.320;2023-05-29T10:56:33;28.70;60.00
23445;DHT22;11895;48.738;9.320;2023-05-29T10:59:07;28.80;59.60
23445;DHT22;11895;48.738;9.320;2023-05-29T11:02:43;29.10;59.60
23445;DHT22;11895;48.738;9.320;2023-05-29T11:05:23;29.00;60.00
23445;DHT22;11895;48.738;9.320;2023-05-29T11:07:55;29.20;59.30
23445;DHT22;11895;48.738;9.320;2023-05-29T11:13:57;29.50;57.60
23445;DHT22;11895;48.738;9.320;2023-05-29T11:19:07;29.50;61.30
23445;DHT22;11895;48.738;9.320;2023-05-29T11:22:14;29.60;57.60
23445;DHT22;11895;48.738;9.320;2023-05-29T11:24:41;29.70;57.30
23445;DHT22;11895;48.738;9.320;2023-05-29T11:27:12;29.80;57.60
23445;DHT22;11895;48.738;9.320;2023-05-29T11:32:30;30.40;56.30
23445;DHT22;11895;48.738;9.320;2023-05-29T11:35:10;29.80;55.30
23445;DHT22;11895;48.738;9.320;2023-05-29T11:37:46;30.60;54.80
23445;DHT22;11895;48.738;9.320;2023-05-29T11:40:15;29.50;53.90
23445;DHT22;11895;48.738;9.320;2023-05-29T11:42:46;30.80;54.30
23445;DHT22;11895;48.738;9.320;2023-05-29T11:45:18;31.60;53.50
23445;DHT22;11895;48.738;9.320;2023-05-29T11:50:26;31.20;52.40
23445;DHT22;11895;48.738;9.320;2023-05-29T11:52:59;31.70;50.50
23445;DHT22;11895;48.738;9.320;2023-05-29T11:55:30;32.30;49.60
23445;DHT22;11895;48.738;9.320;2023-05-29T11:58:05;32.70;48.90
23445;DHT22;11895;48.738;9.320;2023-05-29T12:00:52;33.40;49.40
23445;DHT22;11895;48.738;9.320;2023-05-29T12:05:50;35.30;58.90
23445;DHT22;11895;48.738;9.320;2023-05-29T12:08:25;37.10;54.90
23445;DHT22;11895;48.738;9.320;2023-05-29T18:27:57;25.60;55.80
23445;DHT22;11895;48.738;9.320;2023-05-29T18:30:26;24.10;55.90
23445;DHT22;11895;48.738;9.320;2023-05-29T18:32:55;25.30;59.00
23445;DHT22;11895;48.738;9.320;2023-05-29T18:35:25;25.20;58.70
23445;DHT22;11895;48.738;9.320;2023-05-29T18:37:52;25.10;59.50
23445;DHT22;11895;48.738;9.320;2023-05-29T18:40:21;24.90;58.50
23445;DHT22;11895;48.738;9.320;2023-05-29T18:42:56;25.80;59.30
23445;DHT22;11895;48.738;9.320;2023-05-29T18:45:33;24.70;58.40
23445;DHT22;11895;48.738;9.320;2023-05-29T18:48:05;24.60;58.10
23445;DHT22;11895;48.738;9.320;2023-05-29T18:50:33;24.40;58.70
23445;DHT22;11895;48.738;9.320;2023-05-29T18:53:03;24.50;58.80
23445;DHT22;11895;48.738;9.320;2023-05-29T18:55:31;24.10;59.40
23445;DHT22;11895;48.738;9.320;2023-05-29T18:57:58;24.10;59.30
23445;DHT22;11895;48.738;9.320;2023-05-29T19:00:28;24.00;59.20
23445;DHT22;11895;48.738;9.320;2023-05-29T19:02:59;23.80;58.20
23445;DHT22;11895;48.738;9.320;2023-05-29T19:05:31;23.80;58.70
23445;DHT22;11895;48.738;9.320;2023-05-29T19:07:58;23.70;60.20
23445;DHT22;11895;48.738;9.320;2023-05-29T19:10:31;24.70;60.40
23445;DHT22;11895;48.738;9.320;2023-05-29T19:12:59;23.50;60.00
23445;DHT22;11895;48.738;9.320;2023-05-29T19:15:30;23.30;60.00
23445;DHT22;11895;48.738;9.320;2023-05-29T19:17:58;23.30;60.00
23445;DHT22;11895;48.738;9.320;2023-05-29T19:21:33;22.00;60.10
23445;DHT22;11895;48.738;9.320;2023-05-29T19:24:24;23.00;61.10
23445;DHT22;11895;48.738;9.320;2023-05-29T19:26:55;22.90;61.10
23445;DHT22;11895;48.738;9.320;2023-05-29T19:29:25;22.90;62.50
23445;DHT22;11895;48.738;9.320;2023-05-29T19:31:55;22.90;61.30
23445;DHT22;11895;48.738;9.320;2023-05-29T19:34:26;22.90;60.60
23445;DHT22;11895;48.738;9.320;2023-05-29T19:37:03;22.70;62.60
23445;DHT22;11895;48.738;9.320;2023-05-29T19:40:05;22.50;62.30
23445;DHT22;11895;48.738;9.320;2023-05-29T19:42:36;22.60;62.40
23445;DHT22;11895;48.738;9.320;2023-05-29T19:45:09;22.70;62.30
23445;DHT22;11895;48.738;9.320;2023-05-29T19:47:51;22.50;62.00
23445;DHT22;11895;48.738;9.320;2023-05-29T19:50:23;22.40;63.10
23445;DHT22;11895;48.738;9.320;2023-05-29T19:53:03;22.40;64.60
23445;DHT22;11895;48.738;9.320;2023-05-29T19:55:43;22.40;64.80
23445;DHT22;11895;48.738;9.320;2023-05-29T19:58:16;22.50;64.40
23445;DHT22;11895;48.738;9.320;2023-05-29T20:00:51;22.30;64.60
23445;DHT22;11895;48.738;9.320;2023-05-29T20:03:40;22.10;62.60
23445;DHT22;11895;48.738;9.320;2023-05-29T20:08:18;20.90;63.30
23445;DHT22;11895;48.738;9.320;2023-05-29T20:12:16;21.60;63.20
23445;DHT22;11895;48.738;9.320;2023-05-29T20:20:15;21.80;63.70
23445;DHT22;11895;48.738;9.320;2023-05-29T20:22:45;21.80;63.70
23445;DHT22;11895;48.738;9.320;2023-05-29T20:25:13;21.70;64.00
23445;DHT22;11895;48.738;9.320;2023-05-29T20:27:40;21.40;64.00
23445;DHT22;11895;48.738;9.320;2023-05-29T20:30:09;21.30;64.00
23445;DHT22;11895;48.738;9.320;2023-05-29T20:32:37;21.40;64.40
23445;DHT22;11895;48.738;9.320;2023-05-29T20:35:05;21.10;64.20
23445;DHT22;11895;48.738;9.320;2023-05-29T20:37:33;21.30;64.60
23445;DHT22;11895;48.738;9.320;2023-05-29T20:40:04;21.40;64.20
23445;DHT22;11895;48.738;9.320;2023-05-29T20:42:35;21.50;64.60
23445;DHT22;11895;48.738;9.320;2023-05-29T20:45:05;21.40;64.30
23445;DHT22;11895;48.738;9.320;2023-05-29T20:47:34;21.30;64.60
23445;DHT22;11895;48.738;9.320;2023-05-29T20:50:01;21.50;65.50
23445;DHT22;11895;48.738;9.320;2023-05-29T20:52:29;21.10;64.40
23445;DHT22;11895;48.738;9.320;2023-05-29T20:54:57;21.10;65.50
23445;DHT22;11895;48.738;9.320;2023-05-29T20:57:29;21.10;66.30
23445;DHT22;11895;48.738;9.320;2023-05-29T21:00:03;20.50;65.10
23445;DHT22;11895;48.738;9.320;2023-05-29T21:02:42;21.20;67.00
23445;DHT22;11895;48.738;9.320;2023-05-29T21:05:13;21.10;66.50
23445;DHT22;11895;48.738;9.320;2023-05-29T21:07:41;21.00;65.90
23445;DHT22;11895;48.738;9.320;2023-05-29T21:10:09;20.80;66.10
23445;DHT22;11895;48.738;9.320;2023-05-29T21:12:37;20.80;67.10
23445;DHT22;11895;48.738;9.320;2023-05-29T21:15:06;20.70;66.70
23445;DHT22;11895;48.738;9.320;2023-05-29T21:18:01;20.70;67.20
23445;DHT22;11895;48.738;9.320;2023-05-29T21:20:33;20.60;67.70
23445;DHT22;11895;48.738;9.320;2023-05-29T21:23:01;20.60;67.50
23445;DHT22;11895;48.738;9.320;2023-05-29T21:25:29;20.50;68.00
23445;DHT22;11895;48.738;9.320;2023-05-29T21:27:57;20.50;67.20
23445;DHT22;11895;48.738;9.320;2023-05-29T21:30:25;20.50;67.90
23445;DHT22;11895;48.738;9.320;2023-05-29T21:32:52;20.60;69.40
23445;DHT22;11895;48.738;9.320;2023-05-29T21:35:20;20.60;70.00
23445;DHT22;11895;48.738;9.320;2023-05-29T21:37:47;20.40;69.60
23445;DHT22;11895;48.738;9.320;2023-05-29T21:40:15;20.80;68.20
23445;DHT22;11895;48.738;9.320;2023-05-29T21:42:42;20.30;68.00
23445;DHT22;11895;48.738;9.320;2023-05-29T21:45:10;20.50;70.00
23445;DHT22;11895;48.738;9.320;2023-05-29T21:47:37;20.00;69.30
23445;DHT22;11895;48.738;9.320;2023-05-29T21:50:05;19.80;69.80
23445;DHT22;11895;48.738;9.320;2023-05-29T21:52:34;20.00;69.90
23445;DHT22;11895;48.738;9.320;2023-05-29T21:55:02;20.50;71.00
23445;DHT22;11895;48.738;9.320;2023-05-29T21:57:30;20.70;70.40
23445;DHT22;11895;48.738;9.320;2023-05-29T21:59:58;20.50;70.40
23445;DHT22;11895;48.738;9.320;2023-05-29T22:02:25;20.30;70.00
23445;DHT22;11895;48.738;9.320;2023-05-29T22:04:53;20.30;70.30
23445;DHT22;11895;48.738;9.320;2023-05-29T22:07:20;20.00;70.60
23445;DHT22;11895;48.738;9.320;2023-05-29T22:09:49;19.50;70.90
23445;DHT22;11895;48.738;9.320;2023-05-29T22:12:16;19.80;71.30
23445;DHT22;11895;48.738;9.320;2023-05-29T22:14:44;20.10;71.50
23445;DHT22;11895;48.738;9.320;2023-05-29T22:17:11;20.00;71.00
23445;DHT22;11895;48.738;9.320;2023-05-29T22:19:39;19.80;71.50
23445;DHT22;11895;48.738;9.320;2023-05-29T22:22:06;19.70;72.00
23445;DHT22;11895;48.738;9.320;2023-05-29T22:24:36;19.50;72.20
23445;DHT22;11895;48.738;9.320;2023-05-29T22:27:08;20.30;71.50
23445;DHT22;11895;48.738;9.320;2023-05-29T22:29:35;19.40;72.50
23445;DHT22;11895;48.738;9.320;2023-05-29T22:32:03;19.60;73.10
23445;DHT22;11895;48.738;9.320;2023-05-29T22:34:31;19.40;72.20
23445;DHT22;11895;48.738;9.320;2023-05-29T22:36:58;19.40;72.60
23445;DHT22;11895;48.738;9.320;2023-05-29T22:39:25;19.30;73.20
23445;DHT22;11895;48.738;9.320;2023-05-29T22:41:53;19.60;73.00
23445;DHT22;11895;48.738;9.320;2023-05-29T22:44:23;19.20;73.40
23445;DHT22;11895;48.738;9.320;2023-05-29T22:46:50;19.30;73.60
23445;DHT22;11895;48.738;9.320;2023-05-29T22:49:20;19.40;73.20
23445;DHT22;11895;48.738;9.320;2023-05-29T22:51:52;19.10;72.30
23445;DHT22;11895;48.738;9.320;2023-05-29T22:54:19;19.30;73.60
23445;DHT22;11895;48.738;9.320;2023-05-29T22:56:47;18.90;74.00
23445;DHT22;11895;48.738;9.320;2023-05-29T22:59:16;18.70;74.40
23445;DHT22;11895;48.738;9.320;2023-05-29T23:01:44;18.90;75.40
23445;DHT22;11895;48.738;9.320;2023-05-29T23:04:18;18.80;76.00
23445;DHT22;11895;48.738;9.320;2023-05-29T23:06:46;18.70;75.60
23445;DHT22;11895;48.738;9.320;2023-05-29T23:09:16;18.40;76.60
23445;DHT22;11895;48.738;9.320;2023-05-29T23:11:43;18.70;76.60
23445;DHT22;11895;48.738;9.320;2023-05-29T23:14:11;18.60;77.00
23445;DHT22;11895;48.738;9.320;2023-05-29T23:16:38;18.30;75.70
23445;DHT22;11895;48.738;9.320;2023-05-29T23:19:06;18.30;76.00
23445;DHT22;11895;48.738;9.320;2023-05-29T23:21:35;18.10;77.90